createdAt,value
2018-05-11T00:00:16.733Z,12.37
2018-05-11T00:01:22.263Z,12.41
2018-05-11T00:02:27.816Z,12.39
2018-05-11T00:03:33.342Z,12.29
2018-05-11T00:04:38.877Z,12.38
2018-05-11T00:05:44.422Z,12.29
2018-05-11T00:06:49.961Z,12.28
2018-05-11T00:07:55.495Z,12.27
2018-05-11T00:09:01.038Z,12.37
2018-05-11T00:10:06.576Z,12.35
2018-05-11T00:11:12.113Z,12.32
2018-05-11T00:12:17.645Z,12.21
2018-05-11T00:13:23.187Z,12.21
2018-05-11T00:14:28.723Z,12.28
2018-05-11T00:15:34.261Z,12.24
2018-05-11T00:16:39.807Z,12.23
2018-05-11T00:17:45.341Z,12.27
2018-05-11T00:18:50.879Z,12.27
2018-05-11T00:19:56.422Z,12.27
2018-05-11T00:21:01.957Z,12.27
2018-05-11T00:22:07.494Z,12.27
2018-05-11T00:23:13.031Z,12.17
2018-05-11T00:24:18.569Z,12.23
2018-05-11T00:25:24.107Z,12.24
2018-05-11T00:26:29.652Z,12.24
2018-05-11T00:27:35.187Z,12.23
2018-05-11T00:28:40.722Z,12.21
2018-05-11T00:29:46.260Z,12.21
2018-05-11T00:30:51.798Z,12.21
2018-05-11T00:31:57.340Z,12.23
2018-05-11T00:33:02.875Z,12.12
2018-05-11T00:34:08.418Z,12.10
2018-05-11T00:35:13.956Z,12.07
2018-05-11T00:36:19.488Z,12.10
2018-05-11T00:37:25.026Z,12.14
2018-05-11T00:38:30.573Z,12.12
2018-05-11T00:39:36.105Z,12.16
2018-05-11T00:40:41.647Z,12.10
2018-05-11T00:41:47.182Z,12.16
2018-05-11T00:42:52.721Z,12.09
2018-05-11T00:43:58.254Z,12.17
2018-05-11T00:45:03.795Z,12.14
2018-05-11T00:46:09.424Z,12.10
2018-05-11T00:47:14.878Z,12.13
2018-05-11T00:48:20.419Z,12.14
2018-05-11T00:49:25.948Z,12.14
2018-05-11T00:50:31.484Z,12.12
2018-05-11T00:51:37.023Z,12.14
2018-05-11T00:52:42.561Z,12.17
2018-05-11T00:53:48.100Z,12.13
2018-05-11T00:54:53.642Z,12.09
2018-05-11T00:55:59.177Z,12.12
2018-05-11T00:57:04.721Z,12.13
2018-05-11T00:58:10.257Z,12.17
2018-05-11T00:59:15.793Z,12.16
2018-05-11T01:00:21.333Z,12.14
2018-05-11T01:01:26.868Z,12.16
2018-05-11T01:02:32.410Z,12.20
2018-05-11T01:03:37.949Z,12.16
2018-05-11T01:04:43.490Z,12.13
2018-05-11T01:05:49.019Z,12.12
2018-05-11T01:06:54.558Z,12.14
2018-05-11T01:08:00.094Z,12.20
2018-05-11T01:09:05.637Z,12.12
2018-05-11T01:10:11.171Z,12.12
2018-05-11T01:11:16.709Z,12.12
2018-05-11T01:12:22.249Z,12.14
2018-05-11T01:13:27.786Z,12.13
2018-05-11T01:14:33.331Z,12.17
2018-05-11T01:15:38.864Z,12.09
2018-05-11T01:16:44.406Z,12.09
2018-05-11T01:17:49.939Z,12.14
2018-05-11T01:18:55.478Z,12.16
2018-05-11T01:20:01.018Z,12.20
2018-05-11T01:21:06.559Z,12.10
2018-05-11T01:22:12.094Z,12.13
2018-05-11T01:23:17.632Z,12.14
2018-05-11T01:24:23.175Z,12.13
2018-05-11T01:25:28.712Z,12.21
2018-05-11T01:26:34.244Z,12.23
2018-05-11T01:27:39.792Z,12.21
2018-05-11T01:28:45.324Z,12.24
2018-05-11T01:29:50.863Z,12.19
2018-05-11T01:30:56.397Z,12.27
2018-05-11T01:32:01.936Z,12.14
2018-05-11T01:33:07.480Z,12.14
2018-05-11T01:34:13.016Z,12.12
2018-05-11T01:35:18.553Z,12.21
2018-05-11T01:36:24.090Z,12.24
2018-05-11T01:37:29.625Z,12.07
2018-05-11T01:38:35.172Z,12.14
2018-05-11T01:39:40.720Z,12.23
2018-05-11T01:40:46.249Z,12.16
2018-05-11T01:41:51.785Z,12.23
2018-05-11T01:42:57.325Z,12.09
2018-05-11T01:44:02.864Z,12.24
2018-05-11T01:45:08.398Z,12.14
2018-05-11T01:46:13.939Z,12.23
2018-05-11T01:47:19.479Z,12.24
2018-05-11T01:48:25.017Z,12.24
2018-05-11T01:49:30.552Z,12.24
2018-05-11T01:50:36.096Z,12.27
2018-05-11T01:51:41.631Z,12.27
2018-05-11T01:52:47.173Z,12.27
2018-05-11T01:53:52.709Z,12.27
2018-05-11T01:54:58.248Z,12.24
2018-05-11T01:56:03.788Z,12.16
2018-05-11T01:57:09.321Z,12.24
2018-05-11T01:58:14.868Z,12.24
2018-05-11T01:59:20.401Z,12.23
2018-05-11T02:00:25.936Z,12.27
2018-05-11T02:01:31.474Z,12.29
2018-05-11T02:02:37.021Z,12.21
2018-05-11T02:03:42.550Z,12.27
2018-05-11T02:04:48.092Z,12.23
2018-05-11T02:05:53.629Z,12.24
2018-05-11T02:06:59.176Z,12.29
2018-05-11T02:08:04.705Z,12.17
2018-05-11T02:09:10.248Z,12.20
2018-05-11T02:10:15.785Z,12.23
2018-05-11T02:11:21.326Z,12.24
2018-05-11T02:12:26.862Z,12.27
2018-05-11T02:13:32.398Z,12.24
2018-05-11T02:14:37.939Z,12.21
2018-05-11T02:15:43.477Z,12.24
2018-05-11T02:16:49.013Z,12.24
2018-05-11T02:17:54.555Z,12.24
2018-05-11T02:19:00.092Z,12.24
2018-05-11T02:20:05.636Z,12.13
2018-05-11T02:21:11.168Z,12.27
2018-05-11T02:22:16.707Z,12.19
2018-05-11T02:23:22.244Z,12.16
2018-05-11T02:24:27.789Z,12.23
2018-05-11T02:25:33.323Z,12.23
2018-05-11T02:26:38.867Z,12.27
2018-05-11T02:27:44.400Z,12.14
2018-05-11T02:28:49.939Z,12.21
2018-05-11T02:29:55.484Z,12.10
2018-05-11T02:31:01.026Z,12.12
2018-05-11T02:32:06.561Z,12.10
2018-05-11T02:33:12.098Z,12.12
2018-05-11T02:34:17.635Z,12.12
2018-05-11T02:35:23.178Z,12.09
2018-05-11T02:36:28.716Z,12.16
2018-05-11T02:37:34.250Z,12.09
2018-05-11T02:38:39.793Z,12.12
2018-05-11T02:39:45.322Z,12.19
2018-05-11T02:40:50.871Z,12.14
2018-05-11T02:41:56.403Z,12.17
2018-05-11T02:43:01.999Z,12.12
2018-05-11T02:44:07.486Z,12.12
2018-05-11T02:45:13.025Z,12.09
2018-05-11T02:46:18.561Z,12.05
2018-05-11T02:47:24.097Z,12.16
2018-05-11T02:48:29.637Z,12.16
2018-05-11T02:49:35.179Z,12.13
2018-05-11T02:50:40.715Z,12.01
2018-05-11T02:51:46.255Z,12.05
2018-05-11T02:52:51.795Z,12.02
2018-05-11T02:53:57.332Z,12.07
2018-05-11T02:55:02.866Z,12.07
2018-05-11T02:56:08.431Z,12.10
2018-05-11T02:57:13.947Z,12.05
2018-05-11T02:58:19.482Z,12.05
2018-05-11T02:59:25.026Z,11.99
2018-05-11T03:00:30.561Z,11.96
2018-05-11T03:01:36.102Z,11.99
2018-05-11T03:02:41.636Z,11.99
2018-05-11T03:03:47.175Z,12.01
2018-05-11T03:04:52.717Z,12.05
2018-05-11T03:05:58.252Z,11.99
2018-05-11T03:07:03.793Z,11.99
2018-05-11T03:08:09.336Z,12.09
2018-05-11T03:09:14.867Z,12.05
2018-05-11T03:10:20.405Z,12.04
2018-05-11T03:11:25.946Z,12.01
2018-05-11T03:12:31.484Z,12.01
2018-05-11T03:13:37.020Z,12.01
2018-05-11T03:14:42.563Z,11.99
2018-05-11T03:15:48.102Z,12.01
2018-05-11T03:16:53.649Z,11.98
2018-05-11T03:17:59.182Z,11.96
2018-05-11T03:19:04.717Z,11.95
2018-05-11T03:20:10.257Z,11.95
2018-05-11T03:21:15.796Z,12.07
2018-05-11T03:22:21.325Z,11.95
2018-05-11T03:23:26.870Z,11.95
2018-05-11T03:24:32.407Z,11.99
2018-05-11T03:25:37.943Z,11.95
2018-05-11T03:26:43.484Z,11.99
2018-05-11T03:27:49.023Z,12.04
2018-05-11T03:28:54.562Z,12.02
2018-05-11T03:30:00.104Z,11.99
2018-05-11T03:31:05.634Z,12.01
2018-05-11T03:32:11.174Z,11.99
2018-05-11T03:33:16.710Z,12.01
2018-05-11T03:34:22.256Z,11.96
2018-05-11T03:35:27.790Z,12.02
2018-05-11T03:36:33.335Z,12.09
2018-05-11T03:37:38.865Z,11.98
2018-05-11T03:38:44.403Z,11.98
2018-05-11T03:39:49.940Z,11.99
2018-05-11T03:40:55.484Z,11.95
2018-05-11T03:42:01.023Z,12.07
2018-05-11T03:43:06.562Z,12.04
2018-05-11T03:44:12.102Z,12.07
2018-05-11T03:45:17.634Z,12.01
2018-05-11T03:46:23.186Z,12.04
2018-05-11T03:47:28.717Z,12.01
2018-05-11T03:48:34.248Z,11.91
2018-05-11T03:49:39.802Z,11.96
2018-05-11T03:50:45.331Z,11.90
2018-05-11T03:51:50.862Z,12.05
2018-05-11T03:52:56.401Z,12.01
2018-05-11T03:54:01.945Z,11.88
2018-05-11T03:55:07.482Z,11.95
2018-05-11T03:56:13.015Z,12.05
2018-05-11T03:57:18.554Z,11.91
2018-05-11T03:58:24.090Z,12.01
2018-05-11T03:59:29.629Z,11.91
2018-05-11T04:00:35.174Z,12.01
2018-05-11T04:01:40.708Z,11.96
2018-05-11T04:02:46.251Z,11.99
2018-05-11T04:03:51.788Z,11.94
2018-05-11T04:04:57.327Z,12.04
2018-05-11T04:06:02.862Z,11.95
2018-05-11T04:07:08.407Z,11.95
2018-05-11T04:08:13.945Z,11.98
2018-05-11T04:09:19.483Z,12.02
2018-05-11T04:10:25.017Z,11.95
2018-05-11T04:11:30.557Z,11.96
2018-05-11T04:12:36.093Z,12.01
2018-05-11T04:13:41.633Z,11.99
2018-05-11T04:14:47.166Z,12.04
2018-05-11T04:15:52.703Z,11.99
2018-05-11T04:16:58.248Z,11.98
2018-05-11T04:18:03.786Z,12.01
2018-05-11T04:19:09.326Z,11.96
2018-05-11T04:20:14.862Z,12.05
2018-05-11T04:21:20.401Z,12.07
2018-05-11T04:22:25.938Z,12.04
2018-05-11T04:23:31.984Z,12.02
2018-05-11T04:24:37.017Z,12.04
2018-05-11T04:25:42.634Z,11.99
2018-05-11T04:26:48.084Z,11.95
2018-05-11T04:27:53.624Z,11.98
2018-05-11T04:28:59.168Z,12.10
2018-05-11T04:30:04.702Z,12.05
2018-05-11T04:31:10.242Z,12.02
2018-05-11T04:32:15.779Z,12.05
2018-05-11T04:34:53.004Z,12.09
2018-05-11T04:35:58.438Z,11.98
2018-05-11T04:37:56.862Z,12.01
2018-05-11T04:39:02.395Z,12.05
2018-05-11T04:40:07.990Z,12.05
2018-05-11T04:41:13.466Z,12.09
2018-05-11T04:42:19.003Z,12.07
2018-05-11T04:43:24.540Z,11.96
2018-05-11T04:44:30.074Z,11.99
2018-05-11T04:45:35.618Z,12.12
2018-05-11T04:46:41.155Z,12.13
2018-05-11T04:47:46.691Z,12.17
2018-05-11T04:48:52.245Z,12.09
2018-05-11T04:49:57.765Z,12.13
2018-05-11T04:51:03.302Z,12.13
2018-05-11T04:52:08.842Z,12.13
2018-05-11T04:53:14.378Z,12.12
2018-05-11T04:54:19.917Z,12.12
2018-05-11T04:55:25.453Z,12.21
2018-05-11T04:56:30.996Z,12.27
2018-05-11T04:57:36.668Z,12.27
2018-05-11T04:58:42.138Z,12.29
2018-05-11T04:59:47.644Z,12.21
2018-05-11T05:00:53.145Z,12.38
2018-05-11T05:01:58.730Z,12.28
2018-05-11T05:03:04.221Z,12.28
2018-05-11T05:04:09.757Z,12.38
2018-05-11T05:05:15.294Z,12.32
2018-05-11T05:06:20.841Z,12.39
2018-05-11T05:07:26.371Z,12.32
2018-05-11T05:08:31.910Z,12.39
2018-05-11T05:09:37.454Z,12.50
2018-05-11T05:10:42.987Z,12.53
2018-05-11T05:11:48.532Z,12.70
2018-05-11T05:12:54.071Z,12.72
2018-05-11T05:13:59.690Z,12.70
2018-05-11T05:15:05.141Z,12.77
2018-05-11T05:16:10.683Z,12.85
2018-05-11T05:17:16.221Z,12.86
2018-05-11T05:18:21.758Z,12.92
2018-05-11T05:19:27.300Z,12.75
2018-05-11T05:20:32.837Z,12.85
2018-05-11T05:21:38.371Z,12.82
2018-05-11T05:22:43.912Z,12.78
2018-05-11T05:23:49.450Z,12.83
2018-05-11T05:24:54.990Z,12.82
2018-05-11T05:26:00.531Z,12.86
2018-05-11T05:27:06.065Z,12.87
2018-05-11T05:28:11.609Z,13.00
2018-05-11T05:29:17.147Z,13.07
2018-05-11T05:30:22.685Z,13.15
2018-05-11T05:31:28.220Z,13.29
2018-05-11T05:32:33.764Z,13.48
2018-05-11T05:33:39.307Z,13.42
2018-05-11T05:34:44.843Z,13.49
2018-05-11T05:35:50.379Z,13.45
2018-05-11T05:36:55.918Z,13.46
2018-05-11T05:38:01.455Z,13.45
2018-05-11T05:39:07.027Z,13.54
2018-05-11T05:40:12.540Z,13.48
2018-05-11T05:41:18.079Z,13.42
2018-05-11T05:42:23.609Z,13.48
2018-05-11T05:43:29.148Z,13.52
2018-05-11T05:44:34.689Z,13.51
2018-05-11T05:45:40.231Z,13.62
2018-05-11T05:46:45.766Z,13.46
2018-05-11T05:47:51.302Z,13.44
2018-05-11T05:48:56.843Z,13.44
2018-05-11T05:50:02.385Z,13.41
2018-05-11T05:51:07.927Z,13.42
2018-05-11T05:52:13.462Z,13.45
2018-05-11T05:53:19.002Z,13.45
2018-05-11T05:54:24.540Z,13.42
2018-05-11T05:55:30.077Z,13.54
2018-05-11T05:56:35.614Z,13.55
2018-05-11T05:57:41.160Z,13.46
2018-05-11T05:58:46.696Z,13.57
2018-05-11T05:59:52.256Z,13.52
2018-05-11T06:00:57.774Z,13.63
2018-05-11T06:02:03.319Z,13.60
2018-05-11T06:03:08.863Z,13.59
2018-05-11T06:04:14.395Z,13.63
2018-05-11T06:05:19.928Z,13.63
2018-05-11T06:06:25.470Z,13.57
2018-05-11T06:07:31.010Z,13.66
2018-05-11T06:08:36.547Z,13.57
2018-05-11T06:09:42.092Z,13.52
2018-05-11T06:10:47.706Z,13.64
2018-05-11T06:11:53.170Z,13.60
2018-05-11T06:12:58.708Z,13.63
2018-05-11T06:14:04.242Z,13.60
2018-05-11T06:15:09.778Z,13.57
2018-05-11T06:16:15.319Z,13.57
2018-05-11T06:17:20.859Z,13.69
2018-05-11T06:18:26.398Z,13.69
2018-05-11T06:19:31.936Z,13.82
2018-05-11T06:20:37.481Z,13.77
2018-05-11T06:21:43.016Z,13.85
2018-05-11T06:22:48.557Z,13.82
2018-05-11T06:23:54.098Z,13.88
2018-05-11T06:24:59.683Z,14.00
2018-05-11T06:26:05.180Z,14.10
2018-05-11T06:27:10.715Z,14.14
2018-05-11T06:28:16.255Z,14.14
2018-05-11T06:29:21.794Z,14.03
2018-05-11T06:30:27.336Z,14.03
2018-05-11T06:31:32.874Z,14.12
2018-05-11T06:32:38.407Z,14.07
2018-05-11T06:33:43.956Z,14.14
2018-05-11T06:34:49.491Z,14.04
2018-05-11T06:35:55.025Z,14.10
2018-05-11T06:37:00.565Z,14.15
2018-05-11T06:38:06.108Z,14.24
2018-05-11T06:39:11.642Z,14.32
2018-05-11T06:40:17.188Z,14.54
2018-05-11T06:41:22.741Z,14.55
2018-05-11T06:42:28.262Z,14.81
2018-05-11T06:43:33.802Z,14.96
2018-05-11T06:44:39.346Z,15.09
2018-05-11T06:45:44.889Z,15.23
2018-05-11T06:46:50.424Z,15.32
2018-05-11T06:47:55.959Z,15.32
2018-05-11T06:49:01.506Z,15.36
2018-05-11T06:50:07.043Z,15.49
2018-05-11T06:51:12.579Z,15.53
2018-05-11T06:52:18.117Z,15.53
2018-05-11T06:53:23.670Z,15.72
2018-05-11T06:54:29.283Z,15.57
2018-05-11T06:55:34.764Z,15.59
2018-05-11T06:56:40.347Z,15.62
2018-05-11T06:57:45.822Z,15.62
2018-05-11T06:58:51.357Z,15.75
2018-05-11T06:59:56.901Z,15.78
2018-05-11T07:01:02.441Z,15.76
2018-05-11T07:02:07.980Z,15.62
2018-05-11T07:03:13.527Z,15.68
2018-05-11T07:04:19.062Z,15.65
2018-05-11T07:05:24.607Z,15.54
2018-05-11T07:06:30.145Z,15.43
2018-05-11T07:07:35.773Z,15.50
2018-05-11T07:08:41.228Z,15.54
2018-05-11T07:09:46.764Z,15.59
2018-05-11T07:10:52.304Z,15.64
2018-05-11T07:11:57.845Z,15.76
2018-05-11T07:13:03.391Z,15.90
2018-05-11T07:14:08.928Z,16.07
2018-05-11T07:15:14.467Z,16.01
2018-05-11T07:16:20.009Z,16.04
2018-05-11T07:17:25.550Z,16.08
2018-05-11T07:18:31.089Z,16.07
2018-05-11T07:19:36.634Z,16.11
2018-05-11T07:20:42.176Z,16.11
2018-05-11T07:21:47.713Z,16.11
2018-05-11T07:22:53.258Z,16.15
2018-05-11T07:23:58.798Z,16.08
2018-05-11T07:25:04.337Z,16.09
2018-05-11T07:26:09.873Z,16.14
2018-05-11T07:27:15.419Z,16.25
2018-05-11T07:28:20.968Z,16.24
2018-05-11T07:29:26.500Z,16.15
2018-05-11T07:30:32.041Z,16.09
2018-05-11T07:31:37.576Z,16.05
2018-05-11T07:32:43.118Z,16.05
2018-05-11T07:33:48.658Z,16.12
2018-05-11T07:34:54.240Z,16.07
2018-05-11T07:35:59.745Z,16.12
2018-05-11T07:37:05.284Z,16.24
2018-05-11T07:38:10.822Z,16.24
2018-05-11T07:39:16.364Z,16.42
2018-05-11T07:40:21.904Z,16.33
2018-05-11T07:41:27.445Z,16.15
2018-05-11T07:42:32.993Z,15.78
2018-05-11T07:43:38.532Z,15.83
2018-05-11T07:44:44.070Z,16.01
2018-05-11T07:45:49.615Z,16.08
2018-05-11T07:46:55.160Z,16.25
2018-05-11T07:48:00.698Z,16.46
2018-05-11T07:49:06.235Z,16.58
2018-05-11T07:50:11.780Z,16.83
2018-05-11T07:51:17.319Z,16.97
2018-05-11T07:52:22.861Z,16.98
2018-05-11T07:53:28.405Z,16.82
2018-05-11T07:54:33.947Z,16.64
2018-05-11T07:55:39.490Z,16.57
2018-05-11T07:56:45.029Z,16.43
2018-05-11T07:57:50.561Z,16.42
2018-05-11T07:58:56.111Z,16.52
2018-05-11T08:00:01.648Z,16.60
2018-05-11T08:01:07.186Z,16.67
2018-05-11T08:02:12.731Z,16.68
2018-05-11T08:03:18.274Z,16.61
2018-05-11T08:04:23.820Z,16.60
2018-05-11T08:05:29.353Z,16.68
2018-05-11T08:06:34.953Z,16.78
2018-05-11T08:07:40.444Z,16.82
2018-05-11T08:08:45.978Z,16.91
2018-05-11T08:09:51.523Z,17.03
2018-05-11T08:10:57.060Z,17.00
2018-05-11T08:12:02.614Z,17.16
2018-05-11T08:13:08.143Z,17.11
2018-05-11T08:14:13.737Z,17.23
2018-05-11T08:15:19.235Z,17.37
2018-05-11T08:16:24.769Z,17.54
2018-05-11T08:17:30.315Z,17.66
2018-05-11T08:18:35.854Z,17.75
2018-05-11T08:19:41.396Z,17.68
2018-05-11T08:20:46.950Z,17.44
2018-05-11T08:21:52.483Z,17.33
2018-05-11T08:22:58.023Z,17.18
2018-05-11T08:24:03.565Z,17.26
2018-05-11T08:25:09.107Z,17.19
2018-05-11T08:26:14.651Z,17.07
2018-05-11T08:27:20.192Z,17.00
2018-05-11T08:28:25.737Z,16.94
2018-05-11T08:29:31.267Z,16.83
2018-05-11T08:30:36.820Z,16.75
2018-05-11T08:31:42.359Z,16.70
2018-05-11T08:32:47.899Z,16.82
2018-05-11T08:33:53.449Z,16.96
2018-05-11T08:34:58.983Z,17.15
2018-05-11T08:36:04.523Z,17.26
2018-05-11T08:37:10.065Z,17.19
2018-05-11T08:38:15.605Z,17.16
2018-05-11T08:39:21.151Z,16.96
2018-05-11T08:40:26.690Z,16.86
2018-05-11T08:41:32.234Z,16.58
2018-05-11T08:42:37.781Z,16.57
2018-05-11T08:43:43.318Z,16.70
2018-05-11T08:44:48.859Z,16.75
2018-05-11T08:45:54.402Z,17.07
2018-05-11T08:46:59.944Z,17.14
2018-05-11T08:48:05.478Z,17.38
2018-05-11T08:49:11.025Z,17.66
2018-05-11T08:50:16.567Z,17.97
2018-05-11T08:51:22.110Z,17.97
2018-05-11T08:52:27.648Z,17.96
2018-05-11T08:53:33.195Z,18.07
2018-05-11T08:54:38.738Z,17.95
2018-05-11T08:55:44.283Z,17.97
2018-05-11T08:56:49.816Z,18.10
2018-05-11T08:57:55.366Z,18.21
2018-05-11T08:59:00.901Z,18.25
2018-05-11T09:00:06.448Z,18.26
2018-05-11T09:01:11.986Z,18.41
2018-05-11T09:02:17.529Z,18.54
2018-05-11T09:03:23.071Z,18.62
2018-05-11T09:04:28.609Z,18.55
2018-05-11T09:05:34.154Z,18.41
2018-05-11T09:06:39.699Z,18.55
2018-05-11T09:07:45.236Z,18.11
2018-05-11T09:08:50.780Z,17.95
2018-05-11T09:09:56.321Z,17.99
2018-05-11T09:11:01.868Z,18.00
2018-05-11T09:12:07.409Z,18.14
2018-05-11T09:13:12.947Z,18.18
2018-05-11T09:14:18.494Z,18.39
2018-05-11T09:15:24.036Z,18.45
2018-05-11T09:16:29.573Z,18.41
2018-05-11T09:17:35.118Z,18.39
2018-05-11T09:18:40.659Z,18.15
2018-05-11T09:19:46.207Z,17.99
2018-05-11T09:20:51.751Z,18.03
2018-05-11T09:21:57.334Z,18.05
2018-05-11T09:23:02.833Z,18.32
2018-05-11T09:24:08.372Z,18.47
2018-05-11T09:25:13.920Z,18.69
2018-05-11T09:26:19.463Z,18.60
2018-05-11T09:27:24.999Z,18.57
2018-05-11T09:28:30.548Z,18.48
2018-05-11T09:29:36.084Z,18.45
2018-05-11T09:30:41.631Z,18.30
2018-05-11T09:31:47.195Z,18.11
2018-05-11T09:32:52.734Z,18.08
2018-05-11T09:33:58.254Z,17.92
2018-05-11T09:35:03.797Z,17.95
2018-05-11T09:36:09.341Z,17.96
2018-05-11T09:37:14.884Z,18.00
2018-05-11T09:38:20.426Z,17.97
2018-05-11T09:39:25.989Z,18.30
2018-05-11T09:40:31.514Z,18.39
2018-05-11T09:41:37.050Z,18.58
2018-05-11T09:42:42.594Z,18.70
2018-05-11T09:43:48.141Z,18.69
2018-05-11T09:44:53.687Z,18.45
2018-05-11T09:45:59.226Z,18.20
2018-05-11T09:47:04.775Z,17.96
2018-05-11T09:48:10.307Z,18.05
2018-05-11T09:49:15.850Z,18.15
2018-05-11T09:50:21.396Z,18.42
2018-05-11T09:51:26.944Z,18.52
2018-05-11T09:52:32.476Z,18.73
2018-05-11T09:53:38.029Z,18.98
2018-05-11T09:54:43.567Z,19.31
2018-05-11T09:55:49.109Z,19.54
2018-05-11T09:56:54.649Z,19.58
2018-05-11T09:58:00.195Z,19.59
2018-05-11T09:59:05.741Z,19.56
2018-05-11T10:00:11.282Z,19.32
2018-05-11T10:01:16.825Z,19.08
2018-05-11T10:02:22.368Z,18.92
2018-05-11T10:03:27.907Z,18.55
2018-05-11T10:04:33.451Z,18.33
2018-05-11T10:05:38.999Z,18.12
2018-05-11T10:06:44.539Z,18.18
2018-05-11T10:07:50.087Z,18.29
2018-05-11T10:08:55.620Z,18.42
2018-05-11T10:10:01.176Z,18.41
2018-05-11T10:11:06.704Z,18.65
2018-05-11T10:12:12.252Z,18.85
2018-05-11T10:13:17.792Z,18.88
2018-05-11T10:14:23.334Z,19.04
2018-05-11T10:15:28.881Z,19.14
2018-05-11T10:16:34.425Z,19.29
2018-05-11T10:17:39.966Z,19.33
2018-05-11T10:18:45.505Z,19.50
2018-05-11T10:19:51.051Z,19.44
2018-05-11T10:20:56.720Z,19.48
2018-05-11T10:22:02.136Z,19.59
2018-05-11T10:23:07.683Z,19.40
2018-05-11T10:24:13.219Z,19.46
2018-05-11T10:25:18.772Z,19.48
2018-05-11T10:26:24.304Z,19.54
2018-05-11T10:27:29.852Z,19.51
2018-05-11T10:28:35.396Z,19.44
2018-05-11T10:29:40.938Z,19.10
2018-05-11T10:30:46.479Z,19.08
2018-05-11T10:31:52.029Z,19.26
2018-05-11T10:32:57.566Z,19.28
2018-05-11T10:34:03.110Z,19.41
2018-05-11T10:35:08.656Z,19.59
2018-05-11T10:36:14.199Z,19.69
2018-05-11T10:37:19.739Z,19.81
2018-05-11T10:38:25.287Z,19.98
2018-05-11T10:39:30.827Z,19.95
2018-05-11T10:40:36.370Z,19.81
2018-05-11T10:41:41.917Z,19.81
2018-05-11T10:42:47.460Z,19.88
2018-05-11T10:43:52.999Z,19.84
2018-05-11T10:44:58.547Z,19.87
2018-05-11T10:46:04.087Z,19.86
2018-05-11T10:47:09.632Z,20.03
2018-05-11T10:48:15.172Z,20.20
2018-05-11T10:49:20.715Z,20.16
2018-05-11T10:50:26.260Z,20.03
2018-05-11T10:51:31.805Z,19.96
2018-05-11T10:52:37.347Z,19.86
2018-05-11T10:53:42.891Z,19.88
2018-05-11T10:54:48.432Z,19.76
2018-05-11T10:55:53.971Z,19.81
2018-05-11T10:56:59.523Z,19.87
2018-05-11T10:58:05.066Z,19.95
2018-05-11T10:59:10.612Z,20.10
2018-05-11T11:00:16.153Z,19.99
2018-05-11T11:01:21.690Z,20.05
2018-05-11T11:02:27.310Z,20.23
2018-05-11T11:03:32.783Z,20.35
2018-05-11T11:04:38.320Z,20.57
2018-05-11T11:05:43.873Z,20.69
2018-05-11T11:06:49.420Z,20.67
2018-05-11T11:07:54.960Z,20.70
2018-05-11T11:09:00.497Z,20.67
2018-05-11T11:10:06.080Z,20.61
2018-05-11T11:11:11.589Z,20.50
2018-05-11T11:12:17.135Z,20.48
2018-05-11T11:13:22.670Z,20.61
2018-05-11T11:14:28.217Z,20.58
2018-05-11T11:15:33.764Z,20.59
2018-05-11T11:16:39.301Z,20.67
2018-05-11T11:17:44.845Z,20.77
2018-05-11T11:18:50.391Z,21.03
2018-05-11T11:19:55.951Z,21.12
2018-05-11T11:21:01.476Z,21.09
2018-05-11T11:22:07.023Z,21.27
2018-05-11T11:23:12.565Z,21.28
2018-05-11T11:24:18.112Z,21.37
2018-05-11T11:25:23.658Z,21.42
2018-05-11T11:26:29.204Z,21.52
2018-05-11T11:27:34.747Z,21.64
2018-05-11T11:28:40.291Z,21.58
2018-05-11T11:29:45.831Z,21.40
2018-05-11T11:30:51.381Z,21.53
2018-05-11T11:31:56.926Z,21.59
2018-05-11T11:33:02.464Z,21.68
2018-05-11T11:34:08.004Z,21.72
2018-05-11T11:35:13.552Z,21.75
2018-05-11T11:36:19.095Z,21.75
2018-05-11T11:37:24.640Z,21.58
2018-05-11T11:38:30.185Z,21.24
2018-05-11T11:39:35.727Z,21.13
2018-05-11T11:40:41.276Z,20.87
2018-05-11T11:41:46.881Z,20.72
2018-05-11T11:42:52.366Z,20.39
2018-05-11T11:43:57.911Z,20.20
2018-05-11T11:45:03.457Z,19.99
2018-05-11T11:46:08.999Z,19.83
2018-05-11T11:47:14.545Z,19.66
2018-05-11T11:48:20.085Z,19.59
2018-05-11T11:49:25.666Z,19.50
2018-05-11T11:50:31.171Z,19.47
2018-05-11T11:51:36.719Z,19.73
2018-05-11T11:52:42.268Z,19.77
2018-05-11T11:53:47.800Z,19.81
2018-05-11T11:54:53.346Z,19.91
2018-05-11T11:55:58.895Z,19.88
2018-05-11T11:57:04.441Z,19.80
2018-05-11T11:58:09.983Z,19.63
2018-05-11T11:59:15.521Z,19.73
2018-05-11T12:00:21.071Z,19.91
2018-05-11T12:01:26.609Z,20.13
2018-05-11T12:02:32.157Z,20.41
2018-05-11T12:03:37.697Z,20.55
2018-05-11T12:04:43.246Z,20.70
2018-05-11T12:05:48.786Z,20.76
2018-05-11T12:06:54.409Z,20.74
2018-05-11T12:07:59.876Z,20.74
2018-05-11T12:09:05.453Z,20.50
2018-05-11T12:10:10.963Z,20.36
2018-05-11T12:11:16.502Z,20.13
2018-05-11T12:12:22.054Z,20.10
2018-05-11T12:13:27.598Z,20.06
2018-05-11T12:14:33.135Z,19.87
2018-05-11T12:15:38.678Z,19.77
2018-05-11T12:16:44.221Z,19.71
2018-05-11T12:17:49.773Z,19.68
2018-05-11T12:18:55.309Z,19.91
2018-05-11T12:20:00.853Z,19.98
2018-05-11T12:21:06.404Z,20.23
2018-05-11T12:22:11.944Z,20.35
2018-05-11T12:23:17.483Z,20.43
2018-05-11T12:24:23.030Z,20.72
2018-05-11T12:25:28.575Z,20.76
2018-05-11T12:26:34.120Z,20.87
2018-05-11T12:27:39.664Z,20.77
2018-05-11T12:28:45.207Z,20.74
2018-05-11T12:29:50.746Z,20.54
2018-05-11T12:30:56.293Z,20.57
2018-05-11T12:32:01.837Z,20.69
2018-05-11T12:33:07.377Z,20.73
2018-05-11T12:34:12.925Z,20.85
2018-05-11T12:35:18.472Z,20.92
2018-05-11T12:36:24.016Z,20.98
2018-05-11T12:37:29.551Z,21.06
2018-05-11T12:38:35.102Z,20.88
2018-05-11T12:39:40.647Z,20.92
2018-05-11T12:40:46.185Z,21.09
2018-05-11T12:41:51.733Z,21.21
2018-05-11T12:42:57.279Z,21.17
2018-05-11T12:44:02.822Z,21.16
2018-05-11T12:45:08.361Z,21.06
2018-05-11T12:46:13.906Z,21.01
2018-05-11T12:47:19.454Z,20.91
2018-05-11T12:48:24.991Z,20.94
2018-05-11T12:49:30.539Z,20.91
2018-05-11T12:50:36.084Z,20.77
2018-05-11T12:51:41.629Z,20.77
2018-05-11T12:52:47.225Z,20.77
2018-05-11T12:53:52.714Z,20.77
2018-05-11T12:54:58.265Z,20.80
2018-05-11T12:56:03.805Z,21.01
2018-05-11T12:57:09.350Z,21.10
2018-05-11T12:58:14.901Z,21.19
2018-05-11T12:59:20.438Z,21.07
2018-05-11T13:00:25.978Z,21.27
2018-05-11T13:01:31.524Z,21.25
2018-05-11T13:02:37.073Z,21.27
2018-05-11T13:03:42.613Z,21.29
2018-05-11T13:04:48.156Z,21.22
2018-05-11T13:05:53.704Z,21.09
2018-05-11T13:06:59.242Z,21.21
2018-05-11T13:08:04.784Z,21.29
2018-05-11T13:09:10.330Z,21.29
2018-05-11T13:10:15.875Z,21.27
2018-05-11T13:11:21.418Z,21.34
2018-05-11T13:12:26.962Z,21.43
2018-05-11T13:13:32.513Z,21.37
2018-05-11T13:14:38.056Z,21.42
2018-05-11T13:15:43.595Z,21.27
2018-05-11T13:16:49.140Z,21.21
2018-05-11T13:17:54.692Z,21.06
2018-05-11T13:19:00.234Z,20.98
2018-05-11T13:20:05.772Z,20.94
2018-05-11T13:21:11.320Z,20.79
2018-05-11T13:22:16.859Z,20.54
2018-05-11T13:23:22.409Z,20.43
2018-05-11T13:24:27.957Z,20.31
2018-05-11T13:25:33.504Z,20.24
2018-05-11T13:26:39.037Z,20.23
2018-05-11T13:27:44.586Z,20.24
2018-05-11T13:28:50.128Z,20.32
2018-05-11T13:29:55.668Z,20.42
2018-05-11T13:31:01.211Z,20.39
2018-05-11T13:32:06.754Z,20.39
2018-05-11T13:33:12.299Z,20.59
2018-05-11T13:34:17.843Z,20.67
2018-05-11T13:35:23.390Z,20.82
2018-05-11T13:36:29.003Z,21.01
2018-05-11T13:37:34.474Z,21.24
2018-05-11T13:38:40.026Z,21.29
2018-05-11T13:39:45.564Z,21.40
2018-05-11T13:40:51.107Z,21.46
2018-05-11T13:41:56.650Z,21.42
2018-05-11T13:43:02.198Z,21.42
2018-05-11T13:44:07.737Z,21.50
2018-05-11T13:45:13.285Z,21.53
2018-05-11T13:46:18.832Z,21.54
2018-05-11T13:47:24.370Z,21.40
2018-05-11T13:48:30.005Z,21.43
2018-05-11T13:49:35.456Z,21.34
2018-05-11T13:50:41.005Z,21.27
2018-05-11T13:51:46.551Z,21.32
2018-05-11T13:52:52.093Z,21.24
2018-05-11T13:53:57.639Z,21.09
2018-05-11T13:55:03.189Z,21.01
2018-05-11T13:56:08.803Z,21.04
2018-05-11T13:57:14.272Z,21.03
2018-05-11T13:58:19.811Z,21.07
2018-05-11T13:59:25.353Z,21.10
2018-05-11T14:00:30.900Z,21.22
2018-05-11T14:01:36.446Z,21.32
2018-05-11T14:02:41.993Z,21.27
2018-05-11T14:03:47.537Z,21.29
2018-05-11T14:04:53.077Z,21.27
2018-05-11T14:05:58.626Z,21.34